Lingo, New Mexico
Current Conditions -  °F | °C
As of 4:58 PM on Sunday 21 Dec 2014 (Local Time) from KCVS Reporting Station
Clear Clear  
Wind Chill: 56°   Ceiling: Unl
Heat Index: 56°   Visibility: 10mi
Dew Point: 26°   Wind: 18mph
Humidity: 32%   Direction: 270°W
Pressure: 29.66"   Gusts: NA
Location:  33.78°N, 103.12°W
Report Text: KCVS 212358Z AUTO 27016KT 10SM CLR 13/M03 A2966 RMK AO2 SLP025 T01321033 10163 20114 58003 $
Loading
Personal Weather Stations






























Interactive Weather Map New forecast layout! Learn more

10-Day Weather Forecast

Advertisements
Track Severe Weather on mobile